Time;durP1;ratioP1;P1;durP2;ratioP2;P2;SDS_P1;SDS_P2;PMS_P1;PMS_P2;Temp;Humidity;BMP_temperature;BMP_pressure;BME280_temperature;BME280_humidity;BME280_pressure;Samples;Min_cycle;Max_cycle;Signal;HPM_P1;HPM_P2
2023/03/03 00:01:40;;;;;;;1.13;1.02;;;1.90;99.90;;;;;;5070396;28;20473;-73
2023/03/03 00:04:08;;;;;;;1.17;1.08;;;1.90;99.90;;;;;;5075211;28;20432;-74
2023/03/03 00:06:36;;;;;;;1.70;1.33;;;1.90;99.90;;;;;;5071330;28;20961;-73
2023/03/03 00:09:06;;;;;;;1.63;1.40;;;1.90;99.90;;;;;;5077443;28;20992;-74
2023/03/03 00:11:33;;;;;;;1.05;0.90;;;1.70;99.90;;;;;;5072191;28;20506;-74
2023/03/03 00:13:59;;;;;;;2.10;1.60;;;1.60;99.90;;;;;;5080951;28;20819;-73
2023/03/03 00:16:37;;;;;;;1.70;1.45;;;1.50;99.90;;;;;;5075871;28;20785;-73
2023/03/03 00:19:14;;;;;;;3.13;1.03;;;1.50;99.90;;;;;;5084332;28;20516;-73
2023/03/03 00:21:45;;;;;;;2.13;1.27;;;1.40;99.90;;;;;;5078125;28;20430;-73
2023/03/03 00:24:17;;;;;;;3.20;1.40;;;1.40;99.90;;;;;;5084920;28;21091;-74
2023/03/03 00:26:47;;;;;;;2.23;1.13;;;1.50;99.90;;;;;;5086348;28;20488;-73
2023/03/03 00:29:39;;;;;;;2.07;1.10;;;1.40;99.90;;;;;;5085893;28;20474;-74
2023/03/03 00:32:30;;;;;;;1.05;1.05;;;1.40;99.90;;;;;;5083310;28;20467;-75
2023/03/03 00:35:16;;;;;;;3.50;1.20;;;1.50;99.90;;;;;;5073646;28;20430;-73
2023/03/03 00:37:45;;;;;;;2.83;1.70;;;1.50;99.90;;;;;;5080121;28;20419;-73
2023/03/03 00:40:26;;;;;;;4.70;1.90;;;1.60;99.90;;;;;;5070373;28;20427;-73
2023/03/03 00:42:55;;;;;;;5.20;2.00;;;1.60;99.90;;;;;;5069720;28;20430;-73
2023/03/03 00:45:45;;;;;;;1.93;1.63;;;1.50;99.90;;;;;;5069758;28;20492;-73
2023/03/03 00:48:22;;;;;;;2.17;1.52;;;1.50;99.90;;;;;;5084011;28;20448;-73
2023/03/03 00:50:52;;;;;;;3.30;2.08;;;1.40;99.90;;;;;;5073744;28;20453;-73
2023/03/03 00:53:21;;;;;;;1.88;1.77;;;1.40;99.90;;;;;;5087937;28;20899;-73
2023/03/03 00:55:50;;;;;;;2.30;1.60;;;1.40;99.90;;;;;;5077238;28;20439;-73
2023/03/03 00:58:20;;;;;;;1.40;1.27;;;1.40;99.90;;;;;;5077099;28;20431;-73
2023/03/03 01:00:49;;;;;;;3.17;1.60;;;1.50;99.90;;;;;;5072761;28;20487;-73
2023/03/03 01:03:21;;;;;;;2.47;1.88;;;1.60;99.90;;;;;;5070928;28;20423;-74
2023/03/03 01:05:48;;;;;;;1.58;1.48;;;1.60;99.90;;;;;;5081040;28;20516;-73
2023/03/03 01:08:16;;;;;;;1.67;1.65;;;1.50;99.90;;;;;;5080744;28;20431;-73
2023/03/03 01:10:53;;;;;;;3.30;2.47;;;1.40;99.90;;;;;;5073441;28;20426;-73
2023/03/03 01:13:29;;;;;;;1.83;1.73;;;1.40;99.90;;;;;;5075277;28;20427;-74
2023/03/03 01:15:57;;;;;;;4.10;2.10;;;1.40;99.90;;;;;;5079636;28;20462;-74
2023/03/03 01:18:24;;;;;;;2.33;1.48;;;1.40;99.90;;;;;;5079158;28;20423;-73
2023/03/03 01:20:50;;;;;;;3.17;1.90;;;1.30;99.90;;;;;;5086194;28;20422;-74
2023/03/03 01:23:17;;;;;;;2.10;1.40;;;1.20;99.90;;;;;;5074058;28;20423;-73
2023/03/03 01:25:44;;;;;;;3.03;1.60;;;1.20;99.90;;;;;;5076406;28;20487;-73
2023/03/03 01:28:11;;;;;;;7.90;2.38;;;1.10;99.90;;;;;;5075366;28;20461;-74
2023/03/03 01:30:38;;;;;;;3.47;2.00;;;1.00;99.90;;;;;;5074677;28;21142;-73
2023/03/03 01:33:05;;;;;;;3.92;2.13;;;0.90;99.90;;;;;;5084505;28;20438;-73
2023/03/03 01:35:31;;;;;;;4.20;2.15;;;0.80;99.90;;;;;;5078499;28;20429;-73
2023/03/03 01:37:58;;;;;;;3.97;2.15;;;0.70;99.90;;;;;;5078294;28;20483;-73
2023/03/03 01:40:28;;;;;;;3.30;1.53;;;0.60;99.90;;;;;;5080002;28;20529;-74
2023/03/03 01:42:55;;;;;;;4.50;2.25;;;0.60;99.90;;;;;;5084882;28;20425;-74
2023/03/03 01:45:28;;;;;;;2.60;1.98;;;0.60;99.90;;;;;;5082111;28;20428;-74
2023/03/03 01:47:55;;;;;;;3.20;1.55;;;0.60;99.90;;;;;;5074754;28;20422;-73
2023/03/03 01:50:40;;;;;;;2.35;2.15;;;0.60;99.90;;;;;;5079850;28;20431;-73
2023/03/03 01:53:14;;;;;;;5.32;1.80;;;0.60;99.90;;;;;;5083215;28;20517;-73
2023/03/03 01:55:42;;;;;;;5.78;2.10;;;0.50;99.90;;;;;;5076203;28;20423;-74
2023/03/03 01:58:15;;;;;;;2.77;1.83;;;0.40;99.90;;;;;;5081666;28;20427;-74
2023/03/03 02:00:49;;;;;;;2.90;2.03;;;0.50;99.90;;;;;;5078248;28;20881;-74
2023/03/03 02:03:18;;;;;;;4.75;2.00;;;0.40;99.90;;;;;;5082817;28;20449;-74
2023/03/03 02:05:45;;;;;;;3.90;1.70;;;0.30;99.90;;;;;;5072112;28;20501;-74
2023/03/03 02:08:17;;;;;;;1.80;1.65;;;0.20;99.90;;;;;;5076550;28;20423;-73
2023/03/03 02:10:46;;;;;;;4.72;1.90;;;0.10;99.90;;;;;;5079722;28;20499;-73
2023/03/03 02:13:18;;;;;;;3.45;2.05;;;0.10;99.90;;;;;;5085881;28;20449;-73
2023/03/03 02:15:45;;;;;;;3.78;2.40;;;0.10;99.90;;;;;;5076579;28;20923;-73
2023/03/03 02:18:14;;;;;;;5.33;2.73;;;0.00;99.90;;;;;;5078084;28;20940;-74
2023/03/03 02:21:02;;;;;;;2.60;2.40;;;-0.10;99.90;;;;;;5076023;28;20430;-73
2023/03/03 02:23:59;;;;;;;3.75;2.70;;;-0.20;99.90;;;;;;5085716;28;20481;-73
2023/03/03 02:26:31;;;;;;;2.55;2.35;;;-0.30;99.90;;;;;;5083244;28;20505;-73
2023/03/03 02:28:58;;;;;;;2.85;2.17;;;-0.30;99.90;;;;;;5080935;28;20761;-73
2023/03/03 02:31:27;;;;;;;4.88;2.60;;;-0.20;99.90;;;;;;5082554;28;20950;-73
2023/03/03 02:33:55;;;;;;;5.70;2.05;;;-0.10;99.90;;;;;;5078896;28;20493;-73
2023/03/03 02:36:29;;;;;;;1.35;1.27;;;-0.10;99.90;;;;;;5082143;28;20832;-73
2023/03/03 02:39:04;;;;;;;3.90;2.50;;;-0.20;99.90;;;;;;5080479;28;20479;-73
2023/03/03 02:41:50;;;;;;;5.45;2.50;;;-0.40;99.90;;;;;;5080078;28;20856;-73
2023/03/03 02:44:22;;;;;;;4.38;2.40;;;-0.50;99.90;;;;;;5078394;28;20430;-73
2023/03/03 02:46:52;;;;;;;3.45;1.83;;;-0.60;99.90;;;;;;5081024;28;20958;-73
2023/03/03 02:49:22;;;;;;;7.10;2.08;;;-0.70;99.90;;;;;;5083269;28;20465;-73
2023/03/03 02:51:49;;;;;;;3.67;2.50;;;-0.70;99.90;;;;;;5069225;28;20429;-74
2023/03/03 02:54:17;;;;;;;2.75;2.20;;;-0.70;99.90;;;;;;5075150;28;20472;-73
2023/03/03 02:56:44;;;;;;;3.88;2.75;;;-0.70;99.90;;;;;;5079641;28;20506;-73
2023/03/03 02:59:12;;;;;;;2.80;2.13;;;-0.70;99.90;;;;;;5079778;28;20945;-73
2023/03/03 03:01:40;;;;;;;2.58;1.83;;;-0.70;99.90;;;;;;5067543;28;20712;-73
2023/03/03 03:04:13;;;;;;;4.57;1.90;;;-0.70;99.90;;;;;;5072714;28;20428;-73
2023/03/03 03:06:40;;;;;;;2.70;2.40;;;-0.70;99.90;;;;;;5071776;28;20422;-73
2023/03/03 03:09:08;;;;;;;2.23;1.70;;;-0.80;99.90;;;;;;5075349;28;20557;-73
2023/03/03 03:11:36;;;;;;;2.50;1.75;;;-0.80;99.90;;;;;;5075558;28;20513;-73
2023/03/03 03:14:04;;;;;;;3.13;2.55;;;-0.90;99.90;;;;;;5078338;28;20481;-73
2023/03/03 03:16:32;;;;;;;3.92;2.35;;;-0.90;99.90;;;;;;5076935;28;20430;-73
2023/03/03 03:19:03;;;;;;;6.07;1.77;;;-1.00;99.90;;;;;;5069891;28;20458;-73
2023/03/03 03:21:30;;;;;;;4.88;1.98;;;-1.00;99.90;;;;;;5082246;28;20433;-73
2023/03/03 03:24:00;;;;;;;7.20;2.40;;;-1.10;99.90;;;;;;5066602;28;20965;-73
2023/03/03 03:26:27;;;;;;;4.88;2.28;;;-1.10;99.90;;;;;;5077321;28;20914;-73
2023/03/03 03:28:53;;;;;;;4.05;1.77;;;-1.20;99.90;;;;;;5077440;28;20516;-73
2023/03/03 03:31:22;;;;;;;3.88;2.33;;;-1.30;99.90;;;;;;5073515;28;20443;-73
2023/03/03 03:33:49;;;;;;;2.42;2.25;;;-1.50;99.90;;;;;;5076369;28;20441;-72
2023/03/03 03:36:16;;;;;;;4.75;1.77;;;-1.50;99.90;;;;;;5074107;28;20422;-72
2023/03/03 03:38:43;;;;;;;4.25;2.53;;;-1.60;99.90;;;;;;5075012;28;20492;-73
2023/03/03 03:41:11;;;;;;;3.50;2.43;;;-1.70;99.90;;;;;;5068305;28;20428;-72
2023/03/03 03:43:38;;;;;;;2.90;2.20;;;-1.80;99.90;;;;;;5078852;28;20425;-73
2023/03/03 03:46:05;;;;;;;5.30;1.92;;;-1.80;99.90;;;;;;5076032;28;20485;-72
2023/03/03 03:48:32;;;;;;;2.38;2.17;;;-1.80;99.90;;;;;;5077803;28;20505;-72
2023/03/03 03:50:59;;;;;;;2.40;2.30;;;-2.00;99.90;;;;;;5079604;28;20520;-72
2023/03/03 03:53:29;;;;;;;2.47;1.30;;;-2.10;99.90;;;;;;5069288;28;20443;-72
2023/03/03 03:55:56;;;;;;;2.63;1.55;;;-2.10;99.90;;;;;;5078103;28;20431;-72
2023/03/03 03:58:25;;;;;;;5.70;2.25;;;-2.20;99.90;;;;;;5081490;28;20455;-72
2023/03/03 04:00:52;;;;;;;6.47;2.58;;;-2.30;99.90;;;;;;5074563;28;20427;-72
2023/03/03 04:03:19;;;;;;;3.95;1.95;;;-2.30;99.90;;;;;;5081512;28;20891;-72
2023/03/03 04:05:46;;;;;;;3.53;1.90;;;-2.40;99.90;;;;;;5084184;28;20516;-73
2023/03/03 04:08:13;;;;;;;2.97;2.58;;;-2.50;99.90;;;;;;5084340;28;20440;-72
2023/03/03 04:10:40;;;;;;;3.05;2.75;;;-2.50;99.90;;;;;;5073721;28;20442;-71
2023/03/03 04:13:06;;;;;;;4.20;1.80;;;-2.50;99.90;;;;;;5070128;28;20473;-72
2023/03/03 04:15:39;;;;;;;11.00;3.35;;;-2.40;99.90;;;;;;5079136;28;20432;-71
2023/03/03 04:18:06;;;;;;;2.55;1.33;;;-2.50;99.90;;;;;;5081702;28;20425;-71
2023/03/03 04:20:33;;;;;;;2.38;1.90;;;-2.50;99.90;;;;;;5088077;28;20426;-72
2023/03/03 04:22:59;;;;;;;1.98;1.80;;;-2.60;99.90;;;;;;5072692;28;21003;-71
2023/03/03 04:25:26;;;;;;;5.35;2.60;;;-2.70;99.90;;;;;;5086628;28;20421;-71
2023/03/03 04:27:55;;;;;;;6.68;2.92;;;-2.60;99.90;;;;;;5079213;28;20434;-72
2023/03/03 04:30:22;;;;;;;2.90;2.00;;;-2.50;99.90;;;;;;5086028;28;20425;-72
2023/03/03 04:32:49;;;;;;;2.58;2.33;;;-2.40;99.90;;;;;;5082662;28;20467;-72
2023/03/03 04:35:16;;;;;;;5.97;1.67;;;-2.30;99.90;;;;;;5086212;28;20573;-72
2023/03/03 04:37:43;;;;;;;4.33;2.73;;;-2.30;99.90;;;;;;5090054;28;20992;-72
2023/03/03 04:40:10;;;;;;;3.10;1.67;;;-2.30;99.90;;;;;;5074921;28;20431;-72
2023/03/03 04:42:42;;;;;;;4.93;2.08;;;-2.30;99.90;;;;;;5074877;28;20425;-72
2023/03/03 04:45:09;;;;;;;3.30;1.98;;;-2.30;99.90;;;;;;5084504;28;20426;-71
2023/03/03 04:47:36;;;;;;;3.13;1.80;;;-2.40;99.90;;;;;;5087090;28;20422;-72
2023/03/03 04:50:06;;;;;;;2.15;2.05;;;-2.40;99.90;;;;;;5085502;28;20858;-71
2023/03/03 04:52:33;;;;;;;2.60;1.98;;;-2.40;99.90;;;;;;5070404;28;20477;-71
2023/03/03 04:55:00;;;;;;;3.80;2.25;;;-2.40;99.90;;;;;;5079355;28;20430;-71
2023/03/03 04:57:27;;;;;;;7.47;2.42;;;-2.40;99.90;;;;;;5086689;28;20530;-71
2023/03/03 04:59:54;;;;;;;2.88;2.38;;;-2.40;99.90;;;;;;5088773;28;20436;-71
2023/03/03 05:02:21;;;;;;;2.13;1.63;;;-2.50;99.90;;;;;;5085386;28;20479;-71
2023/03/03 05:04:47;;;;;;;5.40;2.05;;;-2.70;99.90;;;;;;5087352;28;20426;-72
2023/03/03 05:07:14;;;;;;;1.63;1.30;;;-2.70;99.90;;;;;;5084110;28;20936;-71
2023/03/03 05:09:41;;;;;;;2.10;1.33;;;-2.80;99.90;;;;;;5082134;28;20461;-71
2023/03/03 05:12:08;;;;;;;3.35;2.42;;;-2.80;99.90;;;;;;5084227;28;20419;-71
2023/03/03 05:14:35;;;;;;;3.90;1.60;;;-2.80;99.90;;;;;;5087133;28;20433;-71
2023/03/03 05:17:03;;;;;;;5.28;1.70;;;-2.80;99.90;;;;;;5079431;28;20467;-71
2023/03/03 05:19:30;;;;;;;1.53;1.43;;;-2.80;99.90;;;;;;5088124;28;20807;-71
2023/03/03 05:21:57;;;;;;;1.47;1.47;;;-2.90;99.90;;;;;;5077268;28;20516;-71
2023/03/03 05:24:24;;;;;;;3.38;1.83;;;-2.90;99.90;;;;;;5071183;28;20503;-71
2023/03/03 05:26:51;;;;;;;4.75;2.20;;;-2.90;99.90;;;;;;5069977;28;20437;-71
2023/03/03 05:29:18;;;;;;;3.22;2.35;;;-3.00;99.90;;;;;;5081133;28;20426;-71
2023/03/03 05:31:44;;;;;;;2.60;1.63;;;-3.10;99.90;;;;;;5077317;28;20428;-71
2023/03/03 05:34:11;;;;;;;1.65;1.08;;;-3.20;99.90;;;;;;5090711;28;20430;-71
2023/03/03 05:36:38;;;;;;;2.67;1.70;;;-3.30;99.90;;;;;;5082815;28;20519;-71
2023/03/03 05:39:05;;;;;;;1.88;1.70;;;-3.30;99.90;;;;;;5083434;28;20430;-71
2023/03/03 05:41:35;;;;;;;3.42;2.00;;;-3.20;99.90;;;;;;5082835;28;20477;-70
2023/03/03 05:44:03;;;;;;;1.97;1.77;;;-3.20;99.90;;;;;;5091881;28;21004;-70
2023/03/03 05:46:29;;;;;;;2.17;1.98;;;-3.00;99.90;;;;;;5070865;28;21215;-70
2023/03/03 05:48:56;;;;;;;4.28;2.33;;;-3.00;99.90;;;;;;5094121;28;20432;-70
2023/03/03 05:51:23;;;;;;;2.25;2.05;;;-2.80;99.90;;;;;;5082690;28;20434;-70
2023/03/03 05:53:49;;;;;;;3.22;2.15;;;-2.70;99.90;;;;;;5088387;28;20431;-70
2023/03/03 05:56:19;;;;;;;5.60;2.97;;;-2.50;99.90;;;;;;5091062;28;20428;-70
2023/03/03 05:58:46;;;;;;;2.20;1.93;;;-2.50;99.90;;;;;;5086493;28;20431;-70
2023/03/03 06:01:13;;;;;;;2.90;1.73;;;-2.50;99.90;;;;;;5086989;28;20959;-70
2023/03/03 06:03:40;;;;;;;7.63;2.33;;;-2.50;99.90;;;;;;5073021;28;20432;-71
2023/03/03 06:06:08;;;;;;;2.57;2.20;;;-2.70;99.90;;;;;;5078793;28;20501;-70
2023/03/03 06:08:35;;;;;;;2.75;2.15;;;-2.70;99.90;;;;;;5090878;28;20442;-69
2023/03/03 06:11:02;;;;;;;5.70;3.15;;;-2.80;99.90;;;;;;5075520;28;20430;-70
2023/03/03 06:13:29;;;;;;;3.40;1.87;;;-2.70;99.90;;;;;;5079120;28;20431;-69
2023/03/03 06:15:55;;;;;;;1.92;1.63;;;-2.70;99.90;;;;;;5074248;28;20436;-69
2023/03/03 06:18:22;;;;;;;2.50;1.75;;;-2.80;99.90;;;;;;5080554;28;20554;-70
2023/03/03 06:20:53;;;;;;;1.77;1.67;;;-2.80;99.90;;;;;;5089646;28;20430;-69
2023/03/03 06:23:21;;;;;;;4.35;1.70;;;-2.80;99.90;;;;;;5091739;28;20419;-70
2023/03/03 06:25:48;;;;;;;1.80;1.70;;;-2.90;99.90;;;;;;5087220;28;20512;-70
2023/03/03 06:28:14;;;;;;;6.23;2.53;;;-2.90;99.90;;;;;;5075927;28;20430;-70
2023/03/03 06:30:41;;;;;;;3.13;1.90;;;-2.90;99.90;;;;;;5072409;28;20477;-69
2023/03/03 06:33:08;;;;;;;2.37;1.97;;;-2.90;99.90;;;;;;5080720;28;20426;-69
2023/03/03 06:35:35;;;;;;;3.22;1.58;;;-2.80;99.90;;;;;;5070630;28;20522;-70
2023/03/03 06:38:02;;;;;;;4.50;2.17;;;-2.80;99.90;;;;;;5067199;28;20931;-70
2023/03/03 06:40:32;;;;;;;4.03;2.43;;;-2.70;99.90;;;;;;5066958;28;20538;-69
2023/03/03 06:43:02;;;;;;;4.05;2.65;;;-2.50;99.90;;;;;;5072145;28;20429;-70
2023/03/03 06:45:28;;;;;;;3.95;3.03;;;-2.40;99.90;;;;;;5070402;28;21832;-69
2023/03/03 06:47:58;;;;;;;4.40;2.50;;;-2.30;99.90;;;;;;5068119;28;21004;-70
2023/03/03 06:50:27;;;;;;;3.25;2.05;;;-2.10;99.90;;;;;;5069868;28;20427;-69
2023/03/03 06:53:06;;;;;;;5.82;2.67;;;-1.90;99.90;;;;;;5079445;28;20943;-70
2023/03/03 06:55:33;;;;;;;3.42;3.03;;;-1.60;99.90;;;;;;5084291;28;20436;-69
2023/03/03 06:58:00;;;;;;;5.43;3.67;;;-1.40;99.90;;;;;;5077611;28;20438;-69
2023/03/03 07:00:27;;;;;;;4.57;4.07;;;-1.30;99.90;;;;;;5075676;28;20918;-70
2023/03/03 07:03:11;;;;;;;8.18;3.80;;;-1.00;99.90;;;;;;5077298;28;20442;-69
2023/03/03 07:05:38;;;;;;;5.20;3.13;;;-0.70;99.90;;;;;;5076143;28;20451;-70
2023/03/03 07:08:12;;;;;;;4.63;3.27;;;-0.30;99.90;;;;;;5075124;28;20425;-70
2023/03/03 07:10:38;;;;;;;11.18;4.20;;;0.00;99.90;;;;;;5068917;28;20835;-70
2023/03/03 07:13:17;;;;;;;8.93;4.03;;;0.30;99.90;;;;;;5071276;28;20920;-69
2023/03/03 07:15:44;;;;;;;9.93;4.82;;;0.50;99.90;;;;;;5074284;28;20517;-70
2023/03/03 07:18:33;;;;;;;6.63;4.60;;;0.70;99.90;;;;;;5077897;28;20900;-70
2023/03/03 07:21:12;;;;;;;8.63;4.78;;;1.10;99.90;;;;;;5080056;28;22284;-69
2023/03/03 07:23:41;;;;;;;9.50;4.25;;;1.30;99.90;;;;;;5073057;28;20426;-70
2023/03/03 07:26:31;;;;;;;6.80;3.92;;;1.30;99.90;;;;;;5072478;28;20435;-70
2023/03/03 07:29:22;;;;;;;8.52;3.63;;;1.50;99.90;;;;;;5072421;28;20906;-71
2023/03/03 07:31:49;;;;;;;9.55;5.43;;;1.60;99.90;;;;;;5063598;28;21098;-71
2023/03/03 07:34:20;;;;;;;5.93;4.07;;;1.80;99.90;;;;;;5082203;28;20426;-70
2023/03/03 07:36:52;;;;;;;8.80;3.97;;;2.00;99.90;;;;;;5086250;28;20433;-71
2023/03/03 07:39:34;;;;;;;8.43;5.30;;;2.20;99.90;;;;;;5083136;28;20437;-70
2023/03/03 07:42:37;;;;;;;4.68;4.07;;;2.30;99.90;;;;;;5077126;28;20427;-70
2023/03/03 07:45:32;;;;;;;6.28;3.97;;;2.50;99.90;;;;;;5099013;28;20472;-70
2023/03/03 07:48:23;;;;;;;5.57;3.63;;;2.70;99.90;;;;;;5077437;28;20433;-70
2023/03/03 07:50:50;;;;;;;12.10;3.80;;;2.70;99.90;;;;;;5075997;28;20427;-70
2023/03/03 07:53:27;;;;;;;9.88;4.28;;;2.90;99.90;;;;;;5069044;28;20425;-70
2023/03/03 07:55:55;;;;;;;6.53;3.65;;;2.90;99.90;;;;;;5087924;28;20426;-70
2023/03/03 07:58:43;;;;;;;5.30;4.05;;;3.00;99.90;;;;;;5084593;28;20950;-71
2023/03/03 08:01:12;;;;;;;9.00;4.18;;;3.30;99.90;;;;;;5074197;28;21082;-70
2023/03/03 08:03:39;;;;;;;7.72;4.57;;;3.40;99.90;;;;;;5077520;28;20424;-70
2023/03/03 08:06:40;;;;;;;8.02;2.92;;;3.40;99.90;;;;;;5077746;28;20453;-71
2023/03/03 08:09:10;;;;;;;6.82;4.03;;;3.40;99.90;;;;;;5079051;28;20476;-71
2023/03/03 08:12:13;;;;;;;4.60;3.10;;;3.60;99.90;;;;;;5082158;28;20463;-71
2023/03/03 08:14:55;;;;;;;4.63;3.22;;;3.70;99.90;;;;;;5081837;28;20436;-70
2023/03/03 08:17:34;;;;;;;5.80;3.47;;;3.60;99.90;;;;;;5085324;28;20430;-70
2023/03/03 08:20:28;;;;;;;7.05;3.92;;;3.70;99.90;;;;;;5076946;28;20431;-70
2023/03/03 08:22:54;;;;;;;6.85;3.85;;;3.70;99.90;;;;;;5072831;28;20424;-71
2023/03/03 08:25:21;;;;;;;6.33;3.43;;;3.70;99.90;;;;;;5073348;28;20797;-71
2023/03/03 08:27:50;;;;;;;6.57;4.13;;;3.70;99.90;;;;;;5075491;28;20434;-71
2023/03/03 08:30:17;;;;;;;7.50;4.40;;;3.60;99.90;;;;;;5086846;28;20455;-71
2023/03/03 08:32:44;;;;;;;5.85;3.63;;;3.50;99.90;;;;;;5084735;28;20426;-72
2023/03/03 08:35:10;;;;;;;7.93;3.60;;;3.60;99.90;;;;;;5082735;28;20432;-70
2023/03/03 08:37:37;;;;;;;5.65;3.42;;;3.90;99.90;;;;;;5079538;28;20985;-70
2023/03/03 08:40:04;;;;;;;7.45;3.83;;;4.00;99.90;;;;;;5081288;28;20950;-70
2023/03/03 08:42:31;;;;;;;6.37;3.90;;;4.30;99.90;;;;;;5074538;28;20554;-71
2023/03/03 08:44:58;;;;;;;4.88;4.10;;;4.60;99.90;;;;;;5079801;28;20795;-71
2023/03/03 08:47:28;;;;;;;7.00;4.28;;;4.90;99.90;;;;;;5076477;28;20475;-71
2023/03/03 08:49:54;;;;;;;5.75;3.85;;;5.00;99.90;;;;;;5084697;28;20899;-71
2023/03/03 08:52:21;;;;;;;5.40;4.63;;;4.90;99.90;;;;;;5079037;28;20439;-71
2023/03/03 08:54:48;;;;;;;8.23;3.37;;;4.80;99.90;;;;;;5077633;28;20429;-71
2023/03/03 08:57:14;;;;;;;7.07;3.88;;;4.90;99.90;;;;;;5082401;28;20921;-71
2023/03/03 08:59:41;;;;;;;5.35;4.20;;;4.80;99.90;;;;;;5077341;28;20431;-71
2023/03/03 09:02:18;;;;;;;5.97;4.07;;;4.90;99.90;;;;;;5078191;28;20415;-72
2023/03/03 09:04:45;;;;;;;7.53;3.85;;;4.90;99.90;;;;;;5068842;28;21234;-71
2023/03/03 09:07:11;;;;;;;5.95;4.28;;;5.20;99.90;;;;;;5075478;28;20428;-72
2023/03/03 09:09:39;;;;;;;6.95;3.58;;;5.20;99.90;;;;;;5069239;28;20437;-71
2023/03/03 09:12:23;;;;;;;9.25;4.25;;;4.80;99.90;;;;;;5076447;28;21141;-72
2023/03/03 09:14:51;;;;;;;10.70;3.35;;;4.90;99.90;;;;;;5076679;28;20434;-72
2023/03/03 09:17:32;;;;;;;5.13;2.97;;;4.60;99.90;;;;;;5067377;28;20434;-72
2023/03/03 09:20:16;;;;;;;6.18;4.20;;;4.60;99.90;;;;;;5076368;28;20438;-72
2023/03/03 09:22:44;;;;;;;8.88;4.45;;;5.20;99.90;;;;;;5073774;28;20434;-72
2023/03/03 09:25:30;;;;;;;5.45;3.95;;;5.40;99.90;;;;;;5072917;28;23141;-72
2023/03/03 09:27:57;;;;;;;6.18;3.42;;;5.50;99.90;;;;;;5068176;28;20432;-71
2023/03/03 09:30:39;;;;;;;6.78;3.47;;;5.50;99.90;;;;;;5074721;28;20429;-72
2023/03/03 09:33:30;;;;;;;10.73;4.60;;;5.50;99.90;;;;;;5085233;28;20468;-72
2023/03/03 09:36:22;;;;;;;6.63;4.27;;;5.50;99.90;;;;;;5074711;28;20439;-72
2023/03/03 09:38:48;;;;;;;4.15;3.72;;;5.70;99.90;;;;;;5065920;28;20531;-72
2023/03/03 09:41:42;;;;;;;4.67;3.40;;;5.90;99.90;;;;;;5066553;28;21411;-72
2023/03/03 09:44:29;;;;;;;4.97;3.55;;;6.10;99.90;;;;;;5068068;28;20946;-71
2023/03/03 09:47:14;;;;;;;7.50;3.60;;;6.00;99.90;;;;;;5068954;28;20482;-72
2023/03/03 09:49:50;;;;;;;4.75;3.10;;;6.10;99.90;;;;;;5072748;28;20515;-71
2023/03/03 09:52:19;;;;;;;3.78;2.60;;;6.10;99.90;;;;;;5078488;28;21145;-72
2023/03/03 09:55:24;;;;;;;8.45;3.92;;;6.10;99.90;;;;;;5080898;28;20436;-72
2023/03/03 09:58:35;;;;;;;6.75;4.20;;;6.30;99.90;;;;;;5063649;28;20434;-72
2023/03/03 10:01:16;;;;;;;6.68;3.28;;;6.80;99.90;;;;;;5079530;28;20501;-72
2023/03/03 10:03:49;;;;;;;5.55;4.85;;;6.90;99.90;;;;;;5076416;28;20435;-72
2023/03/03 10:06:44;;;;;;;8.23;3.73;;;7.10;99.90;;;;;;5079480;28;20423;-72
2023/03/03 10:09:52;;;;;;;9.15;4.53;;;7.00;99.90;;;;;;5076821;28;20461;-72
2023/03/03 10:12:30;;;;;;;4.90;3.30;;;7.20;99.90;;;;;;5016395;28;20435;-72
2023/03/03 10:15:35;;;;;;;5.57;3.38;;;7.50;99.90;;;;;;5018050;28;20474;-72
2023/03/03 10:18:27;;;;;;;9.95;4.75;;;7.60;99.90;;;;;;5010864;28;21236;-72
2023/03/03 10:21:10;;;;;;;12.55;6.15;;;7.70;99.90;;;;;;5015897;28;20434;-72
2023/03/03 10:24:00;;;;;;;21.50;9.40;;;8.00;99.90;;;;;;5005386;28;21071;-72
2023/03/03 10:27:01;;;;;;;11.27;4.80;;;8.20;99.90;;;;;;5002278;28;20448;-72
2023/03/03 10:30:09;;;;;;;6.25;4.00;;;8.00;99.90;;;;;;5016861;28;20435;-72
2023/03/03 10:32:59;;;;;;;6.63;4.10;;;8.10;99.90;;;;;;5015534;28;20553;-72
2023/03/03 10:35:55;;;;;;;10.45;5.15;;;8.20;99.90;;;;;;5016596;28;20428;-72
2023/03/03 10:38:57;;;;;;;10.70;4.82;;;8.50;99.90;;;;;;5014164;28;20434;-71
2023/03/03 10:41:43;;;;;;;4.93;3.17;;;8.10;99.90;;;;;;5009362;28;20661;-72
2023/03/03 10:44:46;;;;;;;9.45;3.50;;;8.60;99.90;;;;;;5009759;28;20879;-72
2023/03/03 10:47:40;;;;;;;9.48;5.28;;;9.00;99.90;;;;;;5012210;28;20419;-72
2023/03/03 10:50:52;;;;;;;13.27;5.23;;;8.50;99.90;;;;;;5079430;28;20487;-72
2023/03/03 10:53:55;;;;;;;6.55;3.65;;;8.20;99.90;;;;;;5068939;28;20488;-72
2023/03/03 10:56:33;;;;;;;8.10;4.10;;;9.00;99.90;;;;;;5069260;28;20932;-72
2023/03/03 10:59:48;;;;;;;6.10;3.45;;;9.10;99.90;;;;;;5076054;28;20493;-72
2023/03/03 11:02:43;;;;;;;8.30;3.92;;;9.50;99.90;;;;;;5073731;28;20865;-71
2023/03/03 11:05:42;;;;;;;6.97;3.42;;;10.00;99.90;;;;;;5070842;28;20893;-71
2023/03/03 11:08:17;;;;;;;5.33;3.87;;;10.00;99.90;;;;;;5086105;28;20520;-71
2023/03/03 11:11:01;;;;;;;10.77;4.55;;;10.00;99.90;;;;;;5080126;28;20432;-71
2023/03/03 11:13:52;;;;;;;6.15;3.90;;;9.60;99.90;;;;;;5093154;28;20500;-72
2023/03/03 11:16:34;;;;;;;5.20;3.58;;;9.60;99.90;;;;;;5070053;28;20743;-72
2023/03/03 11:19:15;;;;;;;5.53;2.58;;;9.50;99.90;;;;;;5071543;28;20438;-71
2023/03/03 11:21:58;;;;;;;5.13;3.28;;;9.40;99.90;;;;;;5068709;28;20589;-71
2023/03/03 11:24:46;;;;;;;6.88;4.07;;;9.90;99.90;;;;;;5072422;28;20431;-71
2023/03/03 11:27:44;;;;;;;6.03;3.80;;;9.80;99.90;;;;;;5072379;28;20423;-72
2023/03/03 11:30:16;;;;;;;6.05;3.17;;;9.90;99.90;;;;;;5064657;28;20425;-72
2023/03/03 11:33:04;;;;;;;4.25;3.47;;;9.90;99.90;;;;;;5089023;28;20930;-72
2023/03/03 11:35:33;;;;;;;7.70;3.60;;;10.30;99.90;;;;;;5076160;28;21154;-72
2023/03/03 11:38:12;;;;;;;7.65;4.13;;;10.50;99.90;;;;;;5073087;28;20804;-71
2023/03/03 11:41:10;;;;;;;6.20;3.38;;;10.80;99.90;;;;;;5070214;28;20449;-70
2023/03/03 11:43:52;;;;;;;7.18;3.17;;;11.20;99.90;;;;;;5073949;28;20437;-70
2023/03/03 11:46:28;;;;;;;4.32;2.70;;;10.60;99.90;;;;;;5075627;28;20457;-70
2023/03/03 11:49:04;;;;;;;4.75;3.25;;;10.90;99.90;;;;;;5073840;28;20422;-70
2023/03/03 11:51:35;;;;;;;7.13;3.17;;;10.80;99.90;;;;;;5069470;28;20430;-70
2023/03/03 11:54:09;;;;;;;5.75;3.20;;;;;;;;;;5068914;28;20493;-70
2023/03/03 11:56:43;;;;;;;7.22;3.00;;;;;;;;;;5080504;28;21028;-70
2023/03/03 11:59:32;;;;;;;7.70;2.97;;;10.90;99.90;;;;;;5078062;28;20761;-70
2023/03/03 12:02:19;;;;;;;4.32;2.88;;;11.40;99.90;;;;;;5067986;28;20941;-70
2023/03/03 12:04:52;;;;;;;5.38;3.05;;;11.60;99.90;;;;;;5074283;28;20437;-70
2023/03/03 12:07:48;;;;;;;3.77;3.03;;;11.80;99.90;;;;;;5072924;28;20539;-71
2023/03/03 12:10:21;;;;;;;7.65;4.03;;;11.70;99.90;;;;;;5068559;28;20438;-70
2023/03/03 12:13:15;;;;;;;5.25;3.08;;;12.30;99.90;;;;;;5068418;28;20436;-71
2023/03/03 12:15:55;;;;;;;5.15;3.03;;;12.40;99.90;;;;;;5069830;28;20487;-71
2023/03/03 12:18:34;;;;;;;5.93;3.03;;;12.30;99.90;;;;;;5064886;28;20435;-70
2023/03/03 12:21:39;;;;;;;7.68;3.13;;;12.60;99.90;;;;;;5083844;28;20522;-69
2023/03/03 12:24:24;;;;;;;5.82;2.47;;;11.70;99.90;;;;;;5069978;28;20433;-70
2023/03/03 12:26:51;;;;;;;4.80;2.90;;;11.10;99.90;;;;;;5069241;28;20506;-70
2023/03/03 12:29:50;;;;;;;5.15;2.80;;;11.50;99.90;;;;;;5081911;28;20909;-71
2023/03/03 12:32:31;;;;;;;4.38;2.28;;;12.00;99.90;;;;;;5081145;28;20432;-71
2023/03/03 12:34:58;;;;;;;7.27;3.23;;;12.50;99.90;;;;;;5070370;28;20481;-71
2023/03/03 12:37:49;;;;;;;4.95;2.65;;;11.90;99.90;;;;;;5086002;28;20804;-72
2023/03/03 12:40:24;;;;;;;4.25;2.90;;;;;;;;;;5070549;28;20844;-71
2023/03/03 12:42:51;;;;;;;5.38;3.05;;;;;;;;;;5079411;28;20537;-71
2023/03/03 12:45:19;;;;;;;4.78;3.17;;;;;;;;;;5080840;28;20509;-71
2023/03/03 12:47:48;;;;;;;4.25;2.90;;;;;;;;;;5093467;28;20435;-72
2023/03/03 12:50:30;;;;;;;4.97;2.65;;;;;;;;;;5095023;28;20424;-71
2023/03/03 12:53:21;;;;;;;5.00;2.83;;;;;;;;;;5081008;28;20501;-72
2023/03/03 12:55:51;;;;;;;3.72;2.97;;;;;;;;;;5090086;28;20435;-71
2023/03/03 12:58:39;;;;;;;7.43;3.03;;;;;;;;;;5084368;28;20426;-72
2023/03/03 13:01:27;;;;;;;5.93;3.57;;;;;;;;;;5071473;28;20441;-71
2023/03/03 13:03:55;;;;;;;3.67;2.67;;;;;;;;;;5069444;28;20902;-71
2023/03/03 13:06:34;;;;;;;5.53;2.70;;;;;;;;;;5085782;28;20419;-71
2023/03/03 13:09:04;;;;;;;3.05;2.13;;;;;;;;;;5084088;28;20430;-71
2023/03/03 13:11:31;;;;;;;5.82;3.30;;;;;;;;;;5085442;28;20454;-71
2023/03/03 13:14:12;;;;;;;4.45;2.38;;;;;;;;;;5080971;28;20435;-71
2023/03/03 13:17:01;;;;;;;4.22;3.00;;;;;;;;;;5086704;28;20527;-70
2023/03/03 13:19:34;;;;;;;4.87;2.60;;;;;;;;;;5072635;28;20427;-71
2023/03/03 13:22:18;;;;;;;6.67;3.00;;;;;;;;;;5089115;28;21281;-71
2023/03/03 13:24:57;;;;;;;4.90;2.60;;;;;;;;;;5069107;28;20432;-70
2023/03/03 13:27:27;;;;;;;4.88;2.45;;;;;;;;;;5073325;28;20515;-71
2023/03/03 13:30:09;;;;;;;3.05;2.40;;;;;;;;;;5082298;28;20501;-71
2023/03/03 13:32:36;;;;;;;3.85;2.08;;;;;;;;;;5069676;28;20428;-71
2023/03/03 13:35:08;;;;;;;3.72;2.25;;;;;;;;;;5071813;28;20562;-71
2023/03/03 13:37:42;;;;;;;5.35;2.97;;;;;;;;;;5080801;28;20925;-71
2023/03/03 13:40:15;;;;;;;3.92;2.67;;;;;;;;;;5077486;28;20577;-71